Aviation Digital Data Service (ADDS)

Output produced by METARs form (0020 UTC 24 October 2019)
found at http://www.aviationweather.gov/metar/data/
 
METAR text: OKBK 240000Z 15004KT CAVOK 26/19 Q1010 NOSIG
Conditions at: OKBK (KUWAIT INTL (MIL, KW) observed 0000 UTC 24 October 2019
Temperature: 26.0°C (79°F)
Dewpoint: 19.0°C (66°F) [RH = 65%]
Pressure (altimeter): 29.82 inches Hg (1010.0 mb)
Winds: from the SSE (150 degrees) at 5 MPH (4 knots; 2.1 m/s)
Visibility: 6 or more miles (10+ km)
Ceiling: ceiling and visibility are OK
Clouds: unknown
Weather: no significant weather observed at this time

METAR text: OKBK 232300Z 00000KT CAVOK 26/21 Q1010 NOSIG
Conditions at: OKBK (KUWAIT INTL (MIL, KW) observed 2300 UTC 23 October 2019
Temperature: 26.0°C (79°F)
Dewpoint: 21.0°C (70°F) [RH = 74%]
Pressure (altimeter): 29.82 inches Hg (1010.0 mb)
Winds: calm
Visibility: 6 or more miles (10+ km)
Ceiling: ceiling and visibility are OK
Clouds: unknown
Weather: no significant weather observed at this time

METAR text: OKBK 232200Z 00000KT 8000 SKC 26/22 Q1010 NOSIG
Conditions at: OKBK (KUWAIT INTL (MIL, KW) observed 2200 UTC 23 October 2019
Temperature: 26.0°C (79°F)
Dewpoint: 22.0°C (72°F) [RH = 79%]
Pressure (altimeter): 29.82 inches Hg (1010.0 mb)
Winds: calm
Visibility: 5 miles ( 8 km)
Ceiling: at least 12,000 feet AGL
Clouds: clear skies
Weather: no significant weather observed at this time

METAR text: OKBK 232100Z 00000KT 7000 SKC 26/22 Q1010 NOSIG
Conditions at: OKBK (KUWAIT INTL (MIL, KW) observed 2100 UTC 23 October 2019
Temperature: 26.0°C (79°F)
Dewpoint: 22.0°C (72°F) [RH = 79%]
Pressure (altimeter): 29.82 inches Hg (1010.0 mb)
Winds: calm
Visibility: 4 miles ( 7 km)
Ceiling: at least 12,000 feet AGL
Clouds: clear skies
Weather: no significant weather observed at this time

METAR text: OKBK 232000Z 00000KT 7000 SKC 28/21 Q1011 NOSIG
Conditions at: OKBK (KUWAIT INTL (MIL, KW) observed 2000 UTC 23 October 2019
Temperature: 28.0°C (82°F)
Dewpoint: 21.0°C (70°F) [RH = 66%]
Pressure (altimeter): 29.85 inches Hg (1011.0 mb)
Winds: calm
Visibility: 4 miles ( 7 km)
Ceiling: at least 12,000 feet AGL
Clouds: clear skies
Weather: no significant weather observed at this time

METAR text: OKBK 231900Z 00000KT 7000 SKC 27/20 Q1010 NOSIG
Conditions at: OKBK (KUWAIT INTL (MIL, KW) observed 1900 UTC 23 October 2019
Temperature: 27.0°C (81°F)
Dewpoint: 20.0°C (68°F) [RH = 66%]
Pressure (altimeter): 29.82 inches Hg (1010.0 mb)
Winds: calm
Visibility: 4 miles ( 7 km)
Ceiling: at least 12,000 feet AGL
Clouds: clear skies
Weather: no significant weather observed at this time

METAR text: OKBK 231800Z 23003KT CAVOK 27/17 Q1010 NOSIG
Conditions at: OKBK (KUWAIT INTL (MIL, KW) observed 1800 UTC 23 October 2019
Temperature: 27.0°C (81°F)
Dewpoint: 17.0°C (63°F) [RH = 54%]
Pressure (altimeter): 29.82 inches Hg (1010.0 mb)
Winds: from the SW (230 degrees) at 3 MPH (3 knots; 1.5 m/s)
Visibility: 6 or more miles (10+ km)
Ceiling: ceiling and visibility are OK
Clouds: unknown
Weather: no significant weather observed at this time

METAR text: OKBK 231700Z 16003KT CAVOK 29/19 Q1010 NOSIG
Conditions at: OKBK (KUWAIT INTL (MIL, KW) observed 1700 UTC 23 October 2019
Temperature: 29.0°C (84°F)
Dewpoint: 19.0°C (66°F) [RH = 55%]
Pressure (altimeter): 29.82 inches Hg (1010.0 mb)
Winds: from the SSE (160 degrees) at 3 MPH (3 knots; 1.5 m/s)
Visibility: 6 or more miles (10+ km)
Ceiling: ceiling and visibility are OK
Clouds: unknown
Weather: no significant weather observed at this time

METAR text: OKBK 231600Z 14004KT CAVOK 31/19 Q1010 NOSIG
Conditions at: OKBK (KUWAIT INTL (MIL, KW) observed 1600 UTC 23 October 2019
Temperature: 31.0°C (88°F)
Dewpoint: 19.0°C (66°F) [RH = 49%]
Pressure (altimeter): 29.82 inches Hg (1010.0 mb)
Winds: from the SE (140 degrees) at 5 MPH (4 knots; 2.1 m/s)
Visibility: 6 or more miles (10+ km)
Ceiling: ceiling and visibility are OK
Clouds: unknown
Weather: no significant weather observed at this time

METAR text: OKBK 231500Z 12007KT CAVOK 32/21 Q1009 NOSIG
Conditions at: OKBK (KUWAIT INTL (MIL, KW) observed 1500 UTC 23 October 2019
Temperature: 32.0°C (90°F)
Dewpoint: 21.0°C (70°F) [RH = 52%]
Pressure (altimeter): 29.79 inches Hg (1009.0 mb)
Winds: from the ESE (120 degrees) at 8 MPH (7 knots; 3.6 m/s)
Visibility: 6 or more miles (10+ km)
Ceiling: ceiling and visibility are OK
Clouds: unknown
Weather: no significant weather observed at this time

METAR text: OKBK 231400Z 08007KT 6000 NSC 34/18 Q1009 NOSIG
Conditions at: OKBK (KUWAIT INTL (MIL, KW) observed 1400 UTC 23 October 2019
Temperature: 34.0°C (93°F)
Dewpoint: 18.0°C (64°F) [RH = 39%]
Pressure (altimeter): 29.79 inches Hg (1009.0 mb)
Winds: from the E (80 degrees) at 8 MPH (7 knots; 3.6 m/s)
Visibility: 4 miles ( 6 km)
Ceiling: at least 12,000 feet AGL
Clouds: sky clear below 12,000 feet AGL
Weather: no significant weather observed at this time

METAR text: OKBK 231300Z 11003KT 6000 NSC 35/16 Q1009 NOSIG
Conditions at: OKBK (KUWAIT INTL (MIL, KW) observed 1300 UTC 23 October 2019
Temperature: 35.0°C (95°F)
Dewpoint: 16.0°C (61°F) [RH = 32%]
Pressure (altimeter): 29.79 inches Hg (1009.0 mb)
Winds: from the ESE (110 degrees) at 3 MPH (3 knots; 1.5 m/s)
Visibility: 4 miles ( 6 km)
Ceiling: at least 12,000 feet AGL
Clouds: sky clear below 12,000 feet AGL
Weather: no significant weather observed at this time

METAR text: OKBK 231259Z 11003KT 6000 NSC 35/16 Q1009 NOSIG
Conditions at: OKBK (KUWAIT INTL (MIL, KW) observed 1259 UTC 23 October 2019
Temperature: 35.0°C (95°F)
Dewpoint: 16.0°C (61°F) [RH = 32%]
Pressure (altimeter): 29.79 inches Hg (1009.0 mb)
Winds: from the ESE (110 degrees) at 3 MPH (3 knots; 1.5 m/s)
Visibility: 4 miles ( 6 km)
Ceiling: at least 12,000 feet AGL
Clouds: sky clear below 12,000 feet AGL
Weather: no significant weather observed at this time

METAR text: OKBK 231200Z 01004KT 7000 NSC 38/11 Q1008 NOSIG
Conditions at: OKBK (KUWAIT INTL (MIL, KW) observed 1200 UTC 23 October 2019
Temperature: 38.0°C (100°F)
Dewpoint: 11.0°C (52°F) [RH = 20%]
Pressure (altimeter): 29.76 inches Hg (1008.0 mb)
Winds: from the N (10 degrees) at 5 MPH (4 knots; 2.1 m/s)
Visibility: 4 miles ( 7 km)
Ceiling: at least 12,000 feet AGL
Clouds: sky clear below 12,000 feet AGL
Weather: no significant weather observed at this time

METAR text: OKBK 231100Z 31004KT 8000 NSC 38/10 Q1009 NOSIG
Conditions at: OKBK (KUWAIT INTL (MIL, KW) observed 1100 UTC 23 October 2019
Temperature: 38.0°C (100°F)
Dewpoint: 10.0°C (50°F) [RH = 19%]
Pressure (altimeter): 29.79 inches Hg (1009.0 mb)
Winds: from the NW (310 degrees) at 5 MPH (4 knots; 2.1 m/s)
Visibility: 5 miles ( 8 km)
Ceiling: at least 12,000 feet AGL
Clouds: sky clear below 12,000 feet AGL
Weather: no significant weather observed at this time

METAR text: OKBK 231000Z 28006KT 8000 NSC 38/11 Q1009 NOSIG
Conditions at: OKBK (KUWAIT INTL (MIL, KW) observed 1000 UTC 23 October 2019
Temperature: 38.0°C (100°F)
Dewpoint: 11.0°C (52°F) [RH = 20%]
Pressure (altimeter): 29.79 inches Hg (1009.0 mb)
Winds: from the W (280 degrees) at 7 MPH (6 knots; 3.1 m/s)
Visibility: 5 miles ( 8 km)
Ceiling: at least 12,000 feet AGL
Clouds: sky clear below 12,000 feet AGL
Weather: no significant weather observed at this time

METAR text: OKBK 230900Z 27005KT 8000 NSC 37/11 Q1010 NOSIG
Conditions at: OKBK (KUWAIT INTL (MIL, KW) observed 0900 UTC 23 October 2019
Temperature: 37.0°C (99°F)
Dewpoint: 11.0°C (52°F) [RH = 21%]
Pressure (altimeter): 29.82 inches Hg (1010.0 mb)
Winds: from the W (270 degrees) at 6 MPH (5 knots; 2.6 m/s)
Visibility: 5 miles ( 8 km)
Ceiling: at least 12,000 feet AGL
Clouds: sky clear below 12,000 feet AGL
Weather: no significant weather observed at this time

METAR text: OKBK 230800Z 00000KT 8000 NSC 35/13 Q1011 NOSIG
Conditions at: OKBK (KUWAIT INTL (MIL, KW) observed 0800 UTC 23 October 2019
Temperature: 35.0°C (95°F)
Dewpoint: 13.0°C (55°F) [RH = 27%]
Pressure (altimeter): 29.85 inches Hg (1011.0 mb)
Winds: calm
Visibility: 5 miles ( 8 km)
Ceiling: at least 12,000 feet AGL
Clouds: sky clear below 12,000 feet AGL
Weather: no significant weather observed at this time

METAR text: OKBK 230700Z 35005KT 7000 100 NSC 32/18 Q1011 NOSIG
Conditions at: OKBK (KUWAIT INTL (MIL, KW) observed 0700 UTC 23 October 2019
Temperature: 32.0°C (90°F)
Dewpoint: 18.0°C (64°F) [RH = 43%]
Pressure (altimeter): 29.85 inches Hg (1011.0 mb)
Winds: from the N (350 degrees) at 6 MPH (5 knots; 2.6 m/s)
Visibility: 4 miles ( 7 km)
Ceiling: at least 12,000 feet AGL
Clouds: sky clear below 12,000 feet AGL
Weather: no significant weather observed at this time

METAR text: OKBK 230600Z 36006KT 8000 NSC 30/17 Q1012 NOSIG
Conditions at: OKBK (KUWAIT INTL (MIL, KW) observed 0600 UTC 23 October 2019
Temperature: 30.0°C (86°F)
Dewpoint: 17.0°C (63°F) [RH = 46%]
Pressure (altimeter): 29.88 inches Hg (1012.0 mb)
Winds: from the N (360 degrees) at 7 MPH (6 knots; 3.1 m/s)
Visibility: 5 miles ( 8 km)
Ceiling: at least 12,000 feet AGL
Clouds: sky clear below 12,000 feet AGL
Weather: no significant weather observed at this time

METAR text: OKBK 230500Z 34005KT 8000 NSC 29/18 Q1011 NOSIG
Conditions at: OKBK (KUWAIT INTL (MIL, KW) observed 0500 UTC 23 October 2019
Temperature: 29.0°C (84°F)
Dewpoint: 18.0°C (64°F) [RH = 52%]
Pressure (altimeter): 29.85 inches Hg (1011.0 mb)
Winds: from the NNW (340 degrees) at 6 MPH (5 knots; 2.6 m/s)
Visibility: 5 miles ( 8 km)
Ceiling: at least 12,000 feet AGL
Clouds: sky clear below 12,000 feet AGL
Weather: no significant weather observed at this time

METAR text: OKBK 230400Z 34007KT CAVOK 27/17 Q1010 NOSIG
Conditions at: OKBK (KUWAIT INTL (MIL, KW) observed 0400 UTC 23 October 2019
Temperature: 27.0°C (81°F)
Dewpoint: 17.0°C (63°F) [RH = 54%]
Pressure (altimeter): 29.82 inches Hg (1010.0 mb)
Winds: from the NNW (340 degrees) at 8 MPH (7 knots; 3.6 m/s)
Visibility: 6 or more miles (10+ km)
Ceiling: ceiling and visibility are OK
Clouds: unknown
Weather: no significant weather observed at this time

METAR text: OKBK 230300Z 33006KT 7000 NSC 26/15 Q1010 NOSIG
Conditions at: OKBK (KUWAIT INTL (MIL, KW) observed 0300 UTC 23 October 2019
Temperature: 26.0°C (79°F)
Dewpoint: 15.0°C (59°F) [RH = 51%]
Pressure (altimeter): 29.82 inches Hg (1010.0 mb)
Winds: from the NNW (330 degrees) at 7 MPH (6 knots; 3.1 m/s)
Visibility: 4 miles ( 7 km)
Ceiling: at least 12,000 feet AGL
Clouds: sky clear below 12,000 feet AGL
Weather: no significant weather observed at this time

METAR text: OKBK 230200Z 21004KT CAVOK 23/16 Q1008 NOSIG
Conditions at: OKBK (KUWAIT INTL (MIL, KW) observed 0200 UTC 23 October 2019
Temperature: 23.0°C (73°F)
Dewpoint: 16.0°C (61°F) [RH = 65%]
Pressure (altimeter): 29.76 inches Hg (1008.0 mb)
Winds: from the SSW (210 degrees) at 5 MPH (4 knots; 2.1 m/s)
Visibility: 6 or more miles (10+ km)
Ceiling: ceiling and visibility are OK
Clouds: unknown
Weather: no significant weather observed at this time

METAR text: OKBK 230100Z 17008KT CAVOK 24/17 Q1008 NOSIG
Conditions at: OKBK (KUWAIT INTL (MIL, KW) observed 0100 UTC 23 October 2019
Temperature: 24.0°C (75°F)
Dewpoint: 17.0°C (63°F) [RH = 65%]
Pressure (altimeter): 29.76 inches Hg (1008.0 mb)
Winds: from the S (170 degrees) at 9 MPH (8 knots; 4.1 m/s)
Visibility: 6 or more miles (10+ km)
Ceiling: ceiling and visibility are OK
Clouds: unknown
Weather: no significant weather observed at this time

METAR text: OKBK 230000Z 18005KT CAVOK 24/16 Q1008 NOSIG
Conditions at: OKBK (KUWAIT INTL (MIL, KW) observed 0000 UTC 23 October 2019
Temperature: 24.0°C (75°F)
Dewpoint: 16.0°C (61°F) [RH = 61%]
Pressure (altimeter): 29.76 inches Hg (1008.0 mb)
Winds: from the S (180 degrees) at 6 MPH (5 knots; 2.6 m/s)
Visibility: 6 or more miles (10+ km)
Ceiling: ceiling and visibility are OK
Clouds: unknown
Weather: no significant weather observed at this time

METAR text: OKBK 222300Z 19005KT CAVOK 25/15 Q1009 NOSIG
Conditions at: OKBK (KUWAIT INTL (MIL, KW) observed 2300 UTC 22 October 2019
Temperature: 25.0°C (77°F)
Dewpoint: 15.0°C (59°F) [RH = 54%]
Pressure (altimeter): 29.79 inches Hg (1009.0 mb)
Winds: from the S (190 degrees) at 6 MPH (5 knots; 2.6 m/s)
Visibility: 6 or more miles (10+ km)
Ceiling: ceiling and visibility are OK
Clouds: unknown
Weather: no significant weather observed at this time

METAR text: OKBK 222200Z 22003KT CAVOK 26/16 Q1009 NOSIG
Conditions at: OKBK (KUWAIT INTL (MIL, KW) observed 2200 UTC 22 October 2019
Temperature: 26.0°C (79°F)
Dewpoint: 16.0°C (61°F) [RH = 54%]
Pressure (altimeter): 29.79 inches Hg (1009.0 mb)
Winds: from the SW (220 degrees) at 3 MPH (3 knots; 1.5 m/s)
Visibility: 6 or more miles (10+ km)
Ceiling: ceiling and visibility are OK
Clouds: unknown
Weather: no significant weather observed at this time

METAR text: OKBK 222100Z 23003KT CAVOK 27/19 Q1009 NOSIG
Conditions at: OKBK (KUWAIT INTL (MIL, KW) observed 2100 UTC 22 October 2019
Temperature: 27.0°C (81°F)
Dewpoint: 19.0°C (66°F) [RH = 62%]
Pressure (altimeter): 29.79 inches Hg (1009.0 mb)
Winds: from the SW (230 degrees) at 3 MPH (3 knots; 1.5 m/s)
Visibility: 6 or more miles (10+ km)
Ceiling: ceiling and visibility are OK
Clouds: unknown
Weather: no significant weather observed at this time

METAR text: OKBK 222000Z 18005KT CAVOK 28/20 Q1010 NOSIG
Conditions at: OKBK (KUWAIT INTL (MIL, KW) observed 2000 UTC 22 October 2019
Temperature: 28.0°C (82°F)
Dewpoint: 20.0°C (68°F) [RH = 62%]
Pressure (altimeter): 29.82 inches Hg (1010.0 mb)
Winds: from the S (180 degrees) at 6 MPH (5 knots; 2.6 m/s)
Visibility: 6 or more miles (10+ km)
Ceiling: ceiling and visibility are OK
Clouds: unknown
Weather: no significant weather observed at this time

METAR text: OKBK 221900Z 18006KT CAVOK 29/20 Q1010 NOSIG
Conditions at: OKBK (KUWAIT INTL (MIL, KW) observed 1900 UTC 22 October 2019
Temperature: 29.0°C (84°F)
Dewpoint: 20.0°C (68°F) [RH = 58%]
Pressure (altimeter): 29.82 inches Hg (1010.0 mb)
Winds: from the S (180 degrees) at 7 MPH (6 knots; 3.1 m/s)
Visibility: 6 or more miles (10+ km)
Ceiling: ceiling and visibility are OK
Clouds: unknown
Weather: no significant weather observed at this time

METAR text: OKBK 221800Z 19007KT CAVOK 30/20 Q1010 NOSIG
Conditions at: OKBK (KUWAIT INTL (MIL, KW) observed 1800 UTC 22 October 2019
Temperature: 30.0°C (86°F)
Dewpoint: 20.0°C (68°F) [RH = 55%]
Pressure (altimeter): 29.82 inches Hg (1010.0 mb)
Winds: from the S (190 degrees) at 8 MPH (7 knots; 3.6 m/s)
Visibility: 6 or more miles (10+ km)
Ceiling: ceiling and visibility are OK
Clouds: unknown
Weather: no significant weather observed at this time

METAR text: OKBK 221700Z 20007KT CAVOK 31/16 Q1009 NOSIG
Conditions at: OKBK (KUWAIT INTL (MIL, KW) observed 1700 UTC 22 October 2019
Temperature: 31.0°C (88°F)
Dewpoint: 16.0°C (61°F) [RH = 40%]
Pressure (altimeter): 29.79 inches Hg (1009.0 mb)
Winds: from the SSW (200 degrees) at 8 MPH (7 knots; 3.6 m/s)
Visibility: 6 or more miles (10+ km)
Ceiling: ceiling and visibility are OK
Clouds: unknown
Weather: no significant weather observed at this time

METAR text: OKBK 221600Z 16009KT CAVOK 33/12 Q1009 NOSIG
Conditions at: OKBK (KUWAIT INTL (MIL, KW) observed 1600 UTC 22 October 2019
Temperature: 33.0°C (91°F)
Dewpoint: 12.0°C (54°F) [RH = 28%]
Pressure (altimeter): 29.79 inches Hg (1009.0 mb)
Winds: from the SSE (160 degrees) at 10 MPH (9 knots; 4.6 m/s)
Visibility: 6 or more miles (10+ km)
Ceiling: ceiling and visibility are OK
Clouds: unknown
Weather: no significant weather observed at this time

METAR text: OKBK 221500Z 22007KT CAVOK 35/03 Q1008 NOSIG
Conditions at: OKBK (KUWAIT INTL (MIL, KW) observed 1500 UTC 22 October 2019
Temperature: 35.0°C (95°F)
Dewpoint: 3.0°C (37°F) [RH = 13%]
Pressure (altimeter): 29.76 inches Hg (1008.0 mb)
Winds: from the SW (220 degrees) at 8 MPH (7 knots; 3.6 m/s)
Visibility: 6 or more miles (10+ km)
Ceiling: ceiling and visibility are OK
Clouds: unknown
Weather: no significant weather observed at this time

METAR text: OKBK 221400Z 21005KT CAVOK 36/03 Q1008 NOSIG
Conditions at: OKBK (KUWAIT INTL (MIL, KW) observed 1400 UTC 22 October 2019
Temperature: 36.0°C (97°F)
Dewpoint: 3.0°C (37°F) [RH = 13%]
Pressure (altimeter): 29.76 inches Hg (1008.0 mb)
Winds: from the SSW (210 degrees) at 6 MPH (5 knots; 2.6 m/s)
Visibility: 6 or more miles (10+ km)
Ceiling: ceiling and visibility are OK
Clouds: unknown
Weather: no significant weather observed at this time

METAR text: OKBK 221300Z 23007KT CAVOK 39/03 Q1007 NOSIG
Conditions at: OKBK (KUWAIT INTL (MIL, KW) observed 1300 UTC 22 October 2019
Temperature: 39.0°C (102°F)
Dewpoint: 3.0°C (37°F) [RH = 11%]
Pressure (altimeter): 29.73 inches Hg (1007.0 mb)
Winds: from the SW (230 degrees) at 8 MPH (7 knots; 3.6 m/s)
Visibility: 6 or more miles (10+ km)
Ceiling: ceiling and visibility are OK
Clouds: unknown
Weather: no significant weather observed at this time

Forecast for: OKBK (KUWAIT INTL (MIL, KW)
Text: TAF OKBK 232245Z 2400/2506 14008G18KT 7000 NSC
Forecast period: 0000 UTC 24 October 2019 to 0600 UTC 25 October 2019
Forecast type: FROM: standard forecast or significant change
Winds: from the SE (140 degrees) at 9 MPH (8 knots; 4.1 m/s)
gusting to 21 MPH (18 knots; 9.3 m/s)
Visibility: 4 miles (7 km)
Ceiling: unknown
Clouds: missing
Weather: no significant weather forecast for this period
Text: TEMPO 2400/2408 VRB03KT
Forecast period: 0000 to 0800 UTC 24 October 2019
Forecast type: TEMPORARY: The following changes expected for less than half the time period
Winds: variable direction winds at 3 MPH (3 knots; 1.5 m/s)
Visibility: missing
Ceiling: unknown
Clouds: missing
Weather: no significant weather forecast for this period
Text: TEMPO 2400/2404 3000 BR
Forecast period: 0000 to 0400 UTC 24 October 2019
Forecast type: TEMPORARY: The following changes expected for less than half the time period
Visibility: 1.86 miles (2.99 km)
Ceiling: unknown
Clouds: missing
Weather: BR  (mist)